Time;durP1;ratioP1;P1;durP2;ratioP2;P2;SDS_P1;SDS_P2;PMS_P1;PMS_P2;Temp;Humidity;BMP_temperature;BMP_pressure;BME280_temperature;BME280_humidity;BME280_pressure;Samples;Min_cycle;Max_cycle;Signal;HPM_P1;HPM_P2
2023/10/05 00:01:26;;;;;;;21.73;12.48;;;;;;;21.91;65.88;102000.22;6047787;23;20510;-81
2023/10/05 00:03:53;;;;;;;25.75;12.60;;;;;;;22.11;65.61;102024.97;6046892;23;20027;-78
2023/10/05 00:06:26;;;;;;;19.38;11.63;;;;;;;21.58;66.21;101944.66;6037659;23;20963;-81
2023/10/05 00:08:56;;;;;;;24.20;12.00;;;;;;;22.00;66.16;102029.94;6024856;23;20186;-81
2023/10/05 00:11:28;;;;;;;30.27;11.55;;;;;;;21.83;66.69;102012.94;6055942;23;20033;-80
2023/10/05 00:14:10;;;;;;;21.92;11.60;;;;;;;21.87;66.72;102025.94;6052731;23;20030;-79
2023/10/05 00:16:44;;;;;;;20.38;11.57;;;;;;;21.86;66.09;102013.44;6045101;23;20378;-78
2023/10/05 00:19:15;;;;;;;21.27;11.40;;;;;;;21.64;65.94;101970.97;6051862;23;20573;-79
2023/10/05 00:21:50;;;;;;;24.35;11.15;;;;;;;21.94;65.79;102021.50;6076590;23;20042;-81
2023/10/05 00:24:41;;;;;;;21.45;10.85;;;;;;;21.99;65.17;102015.53;6058567;23;20026;-80
2023/10/05 00:27:08;;;;;;;19.92;11.07;;;;;;;21.90;65.26;102005.81;6064579;23;20089;-81
2023/10/05 00:29:40;;;;;;;18.95;9.55;;;;;;;21.94;65.09;102015.25;6042000;23;20028;-79
2023/10/05 00:32:22;;;;;;;23.08;11.93;;;;;;;21.80;65.44;102002.47;6049512;23;20403;-80
2023/10/05 00:35:11;;;;;;;22.10;10.98;;;;;;;21.61;65.72;101982.97;6058349;23;20026;-79
2023/10/05 00:37:38;;;;;;;19.63;10.48;;;;;;;21.57;66.71;101991.59;6051236;23;20081;-80
2023/10/05 00:40:10;;;;;;;17.52;10.95;;;;;;;21.39;66.46;101973.78;6062196;23;20474;-78
2023/10/05 00:42:36;;;;;;;;;;;;;;;21.53;67.07;102019.00;6052724;23;20023;-80
2023/10/05 00:45:06;;;;;;;25.58;10.93;;;;;;;21.36;67.01;102003.81;6065747;23;20597;-79
2023/10/05 00:47:36;;;;;;;19.02;11.40;;;;;;;21.27;67.06;101985.94;6053790;23;20719;-79
2023/10/05 00:50:07;;;;;;;21.52;11.52;;;;;;;21.41;67.36;102017.69;6053049;23;20405;-78
2023/10/05 00:52:34;;;;;;;24.55;11.32;;;;;;;21.39;67.44;102008.91;6042024;23;20547;-80
2023/10/05 00:55:06;;;;;;;19.42;11.23;;;;;;;21.14;67.58;101970.25;6038219;23;20101;-78
2023/10/05 00:57:34;;;;;;;21.58;11.38;;;;;;;21.30;67.45;102001.81;6042569;23;20060;-80
2023/10/05 01:03:01;;;;;;;19.90;11.35;;;;;;;21.09;68.33;101989.72;6065293;23;20024;-80
2023/10/05 01:05:35;;;;;;;18.90;10.82;;;;;;;20.99;68.23;101975.53;6044684;23;20029;-79
2023/10/05 01:08:04;;;;;;;22.58;10.98;;;;;;;20.82;68.19;101944.19;6045862;23;20074;-80
2023/10/05 01:10:42;;;;;;;23.10;12.00;;;;;;;20.92;67.95;101958.34;6049758;23;20326;-80
2023/10/05 01:13:33;;;;;;;22.95;10.98;;;;;;;20.74;68.60;101957.72;6067744;23;20101;-80
2023/10/05 01:16:19;;;;;;;25.90;12.15;;;;;;;21.04;68.62;102002.03;6042132;23;20102;-81
2023/10/05 01:18:47;;;;;;;21.85;11.75;;;;;;;20.93;69.06;101989.75;6060637;23;20019;-79
2023/10/05 01:21:16;;;;;;;20.90;11.70;;;;;;;20.89;69.32;101985.69;6045708;23;20355;-78
2023/10/05 01:23:44;;;;;;;24.88;12.23;;;;;;;21.02;69.38;102010.31;6045911;23;20082;-79
2023/10/05 01:26:12;;;;;;;26.20;12.05;;;;;;;20.98;69.22;102002.72;6009695;23;20094;-81
2023/10/05 01:28:42;;;;;;;22.42;12.07;;;;;;;21.03;68.82;102003.88;5994368;23;20430;-80
2023/10/05 01:31:21;;;;;;;24.30;12.30;;;;;;;21.01;68.58;101996.97;6038801;23;20469;-80
2023/10/05 01:33:51;;;;;;;25.05;11.70;;;;;;;21.04;68.13;102008.25;6067644;23;20026;-81
2023/10/05 01:36:22;;;;;;;27.88;12.50;;;;;;;21.05;68.05;102009.97;6044628;23;20167;-78
2023/10/05 01:39:07;;;;;;;20.65;11.88;;;;;;;21.08;67.61;102011.47;6058349;23;20254;-81
2023/10/05 01:41:35;;;;;;;22.25;10.95;;;;;;;20.74;67.41;101944.22;6050823;23;20026;-79
2023/10/05 01:44:08;;;;;;;21.85;11.77;;;;;;;20.96;67.22;101978.59;6051687;23;20355;-79
2023/10/05 01:46:36;;;;;;;31.25;11.90;;;;;;;21.01;67.14;101987.00;6045147;23;20025;-79
2023/10/05 01:49:06;;;;;;;19.67;11.65;;;;;;;20.97;66.51;101983.00;5993670;23;20090;-79
2023/10/05 01:51:33;;;;;;;17.70;10.93;;;;;;;20.89;66.58;101973.03;6046219;23;20097;-78
2023/10/05 01:54:11;;;;;;;24.42;11.10;;;;;;;20.98;66.73;101971.16;6042116;23;20218;-79
2023/10/05 01:56:44;;;;;;;18.20;11.48;;;;;;;21.05;66.50;101982.97;6036094;23;20025;-80
2023/10/05 01:59:12;;;;;;;19.20;10.18;;;;;;;21.04;66.58;101981.25;6038769;23;20128;-80
2023/10/05 02:01:43;;;;;;;20.08;11.27;;;;;;;21.03;66.94;101987.69;6036569;23;20026;-78
2023/10/05 02:04:11;;;;;;;20.40;10.98;;;;;;;21.00;66.71;101979.94;6049952;23;20422;-80
2023/10/05 02:06:42;;;;;;;19.25;11.20;;;;;;;20.79;66.89;101941.84;6068743;23;20022;-80
2023/10/05 02:09:19;;;;;;;21.17;11.23;;;;;;;20.89;67.06;101977.59;6048180;23;20022;-80
2023/10/05 02:11:47;;;;;;;21.35;11.40;;;;;;;20.47;67.49;101914.69;6023189;23;20621;-80
2023/10/05 02:14:16;;;;;;;19.40;11.32;;;;;;;20.74;67.38;101957.72;6039858;23;20348;-80
2023/10/05 02:16:49;;;;;;;23.27;10.85;;;;;;;20.74;67.40;101963.09;6062171;23;20023;-81
2023/10/05 02:19:22;;;;;;;19.80;11.52;;;;;;;20.76;67.78;101958.38;6061786;23;20034;-81
2023/10/05 02:21:54;;;;;;;21.92;11.48;;;;;;;20.77;67.82;101973.56;6058467;23;20346;-80
2023/10/05 02:24:25;;;;;;;25.73;11.45;;;;;;;20.77;67.87;101973.56;6054320;23;20446;-80
2023/10/05 02:29:29;;;;;;;20.50;11.32;;;;;;;20.73;67.41;101970.38;6044596;23;20026;-79
2023/10/05 02:32:21;;;;;;;19.83;11.30;;;;;;;20.62;67.12;101960.75;6048014;23;20029;-80
2023/10/05 02:34:59;;;;;;;16.70;10.43;;;;;;;20.70;66.87;101971.56;6055935;23;20018;-79
2023/10/05 02:37:32;;;;;;;16.95;10.32;;;;;;;20.64;66.98;101953.34;6055895;23;20054;-79
2023/10/05 02:39:59;;;;;;;21.23;10.60;;;;;;;20.47;66.88;101930.03;6049901;23;20062;-79
2023/10/05 02:42:26;;;;;;;19.70;10.55;;;;;;;20.50;66.71;101945.88;6046948;23;20018;-79
2023/10/05 02:45:02;;;;;;;23.65;11.07;;;;;;;20.66;66.68;101972.06;6042397;23;20081;-79
2023/10/05 02:47:34;;;;;;;17.58;10.23;;;;;;;20.66;66.78;101983.69;6025361;23;20481;-80
2023/10/05 02:50:06;;;;;;;19.17;10.85;;;;;;;20.63;67.14;101978.63;6048528;23;20108;-79
2023/10/05 02:52:33;;;;;;;16.10;10.50;;;;;;;20.48;67.20;101969.47;6028732;23;20056;-79
2023/10/05 02:55:00;;;;;;;19.13;11.30;;;;;;;20.34;67.19;101945.88;6022886;23;20022;-80
2023/10/05 02:57:32;;;;;;;17.92;10.52;;;;;;;20.56;67.31;101982.16;6049085;23;20026;-79
2023/10/05 03:00:02;;;;;;;21.00;10.60;;;;;;;20.48;67.62;101964.91;6042021;23;20018;-80
2023/10/05 03:02:37;;;;;;;18.67;10.30;;;;;;;20.56;67.47;101977.63;6060449;23;20307;-80
2023/10/05 03:05:14;;;;;;;18.83;11.10;;;;;;;20.50;67.08;101964.75;6083659;23;20037;-80
2023/10/05 03:07:43;;;;;;;23.35;10.05;;;;;;;20.66;67.01;101985.56;6053714;23;20529;-80
2023/10/05 03:10:16;;;;;;;17.25;9.55;;;;;;;20.53;66.88;101964.41;6054982;23;20165;-79
2023/10/05 03:12:47;;;;;;;16.92;9.65;;;;;;;19.89;66.96;101866.34;6066373;23;20022;-80
2023/10/05 03:15:17;;;;;;;22.30;10.48;;;;;;;20.70;66.64;102000.38;6062669;23;20270;-80
2023/10/05 03:17:46;;;;;;;17.55;10.15;;;;;;;20.47;66.70;101963.25;6056123;23;20381;-79
2023/10/05 03:20:18;;;;;;;20.67;11.50;;;;;;;20.58;66.47;101986.38;6052861;23;20018;-80
2023/10/05 03:22:46;;;;;;;20.20;10.50;;;;;;;20.41;66.45;101963.94;6045537;23;20332;-79
2023/10/05 03:25:15;;;;;;;17.42;10.13;;;;;;;20.66;66.51;101999.88;6042442;23;20022;-79
2023/10/05 03:27:45;;;;;;;19.40;10.55;;;;;;;20.67;66.70;101996.16;6019865;23;20223;-79
2023/10/05 03:30:15;;;;;;;19.17;11.13;;;;;;;20.57;66.96;101979.31;6041445;23;20097;-79
2023/10/05 03:32:42;;;;;;;20.75;10.80;;;;;;;20.55;67.21;101984.00;6064143;23;20216;-79
2023/10/05 03:35:09;;;;;;;16.60;11.23;;;;;;;20.18;67.10;101923.28;6056110;23;20045;-80
2023/10/05 03:37:41;;;;;;;19.13;11.18;;;;;;;20.65;67.36;102000.88;6053232;23;20475;-79
2023/10/05 03:40:25;;;;;;;22.80;10.60;;;;;;;20.65;67.20;101995.47;6009463;23;20211;-80
2023/10/05 03:43:00;;;;;;;;;;;;;;;20.61;67.60;101993.31;6045808;23;20037;-81
2023/10/05 03:45:27;;;;;;;18.33;11.35;;;;;;;20.45;67.44;101964.44;6044951;23;20846;-80
2023/10/05 03:47:54;;;;;;;20.05;11.55;;;;;;;20.61;67.60;101982.53;6055542;23;20125;-81
2023/10/05 03:50:21;;;;;;;21.38;12.35;;;;;;;20.46;67.34;101966.09;6057090;23;20023;-80
2023/10/05 03:52:48;;;;;;;26.40;12.30;;;;;;;20.62;67.92;101987.72;6060789;23;20073;-81
2023/10/05 03:55:18;;;;;;;25.58;12.43;;;;;;;20.45;67.75;101964.44;6052049;23;20018;-81
2023/10/05 03:57:49;;;;;;;23.50;12.77;;;;;;;20.58;67.96;101980.97;6059548;23;20033;-81
2023/10/05 04:00:23;;;;;;;21.25;12.30;;;;;;;19.99;68.17;101888.56;6054731;23;20065;-79
2023/10/05 04:02:54;;;;;;;21.05;11.32;;;;;;;20.58;68.36;101994.47;6064143;23;20544;-80
2023/10/05 04:05:22;;;;;;;20.60;11.73;;;;;;;20.57;68.32;101990.09;6075858;23;20030;-80
2023/10/05 04:07:55;;;;;;;23.90;13.40;;;;;;;20.36;68.63;101968.13;6053009;23;20034;-80
2023/10/05 04:10:43;;;;;;;23.33;11.48;;;;;;;20.10;68.49;101928.69;6066906;23;20486;-80
2023/10/05 04:13:23;;;;;;;25.90;13.25;;;;;;;20.33;67.93;101960.38;6033211;23;20022;-80
2023/10/05 04:15:55;;;;;;;18.00;12.52;;;;;;;20.42;67.99;101975.56;6028828;23;20105;-81
2023/10/05 04:18:24;;;;;;;24.00;12.63;;;;;;;20.22;67.59;101948.94;6043970;23;20026;-80
2023/10/05 04:20:55;;;;;;;32.42;13.25;;;;;;;20.48;67.40;101991.91;6043673;23;20022;-81
2023/10/05 04:23:26;;;;;;;28.08;12.85;;;;;;;20.25;67.48;101959.38;6047343;23;20022;-81
2023/10/05 04:25:57;;;;;;;20.47;12.17;;;;;;;20.40;67.34;101982.97;6056702;23;20764;-80
2023/10/05 04:28:34;;;;;;;17.70;12.45;;;;;;;20.20;67.42;101956.34;6057223;23;20022;-82
2023/10/05 04:31:11;;;;;;;19.73;12.07;;;;;;;20.32;67.52;101989.22;6048119;23;20029;-80
2023/10/05 04:33:43;;;;;;;26.70;12.03;;;;;;;20.25;67.81;101980.09;6061655;23;20089;-79
2023/10/05 04:36:10;;;;;;;22.85;13.32;;;;;;;20.07;67.95;101964.03;6057224;23;20327;-80
2023/10/05 04:38:37;;;;;;;27.17;12.57;;;;;;;20.21;67.67;101984.97;6046539;23;20085;-80
2023/10/05 04:41:07;;;;;;;20.00;12.38;;;;;;;20.20;67.56;101988.69;6059090;23;20377;-80
2023/10/05 04:43:38;;;;;;;21.00;12.88;;;;;;;20.22;67.45;101992.06;6069723;23;20451;-82
2023/10/05 04:46:05;;;;;;;25.08;12.95;;;;;;;19.84;67.27;101932.34;6046918;23;20478;-81
2023/10/05 04:48:33;;;;;;;27.17;12.10;;;;;;;20.15;67.42;101985.66;6066479;23;20026;-81
2023/10/05 04:51:05;;;;;;;19.85;12.35;;;;;;;20.21;67.39;101987.66;6050165;23;20537;-80
2023/10/05 04:53:35;;;;;;;20.95;13.23;;;;;;;20.19;67.60;101986.97;6066077;23;20074;-80
2023/10/05 04:56:27;;;;;;;20.33;12.85;;;;;;;20.04;68.04;101967.09;6061620;23;20097;-80
2023/10/05 05:05:04;;;;;;;26.02;15.95;;;;;;;20.08;69.09;101989.19;6045199;23;20040;-80
2023/10/05 05:07:36;;;;;;;23.80;13.95;;;;;;;20.12;69.03;101998.59;6056371;23;20029;-81
2023/10/05 05:10:04;;;;;;;19.10;13.02;;;;;;;19.99;68.46;101988.31;6059918;23;20078;-80
2023/10/05 05:12:35;;;;;;;25.50;13.82;;;;;;;19.92;68.21;101961.16;6056741;23;20853;-80
2023/10/05 05:15:05;;;;;;;19.38;12.43;;;;;;;20.13;67.41;102003.84;6061601;23;20057;-81
2023/10/05 05:17:39;;;;;;;23.13;13.77;;;;;;;20.16;67.03;102003.50;6060526;23;20022;-79
2023/10/05 05:20:15;;;;;;;26.50;13.02;;;;;;;20.11;67.15;102000.47;6052726;23;20022;-81
2023/10/05 05:22:46;;;;;;;21.70;12.55;;;;;;;19.98;67.11;101981.25;6063491;23;20064;-81
2023/10/05 05:25:15;;;;;;;;;;;;;;;20.03;66.96;102000.44;6060002;23;20405;-82
2023/10/05 05:27:45;;;;;;;21.08;13.35;;;;;;;20.00;67.04;102004.31;6049575;23;19929;-81
2023/10/05 05:30:24;;;;;;;27.42;14.15;;;;;;;19.98;67.05;102005.50;6060096;23;20073;-79
2023/10/05 05:32:53;;;;;;;19.27;12.68;;;;;;;19.77;66.97;101974.44;6031681;23;20036;-81
2023/10/05 05:35:20;;;;;;;19.92;12.38;;;;;;;19.98;66.61;102006.34;6042594;23;20474;-80
2023/10/05 05:37:47;;;;;;;24.13;12.52;;;;;;;20.01;66.04;102010.56;6056121;23;20081;-82
2023/10/05 05:40:16;;;;;;;17.40;12.27;;;;;;;19.94;66.07;102004.13;6061159;23;20134;-82
2023/10/05 05:42:45;;;;;;;20.95;12.00;;;;;;;19.85;65.86;101990.63;6037265;23;20026;-81
2023/10/05 05:45:20;;;;;;;27.75;12.02;;;;;;;19.93;66.05;102014.06;6059938;23;20211;-81
2023/10/05 05:47:48;;;;;;;22.05;12.48;;;;;;;19.84;66.21;102005.09;6064040;23;20023;-80
2023/10/05 05:50:18;;;;;;;21.88;12.82;;;;;;;19.71;66.05;101985.00;6085078;23;20023;-80
2023/10/05 05:52:52;;;;;;;18.77;13.02;;;;;;;19.76;66.29;101998.84;6064937;23;20379;-83
2023/10/05 05:55:21;;;;;;;17.20;11.68;;;;;;;19.22;66.25;101904.84;6056873;23;20026;-80
2023/10/05 05:57:51;;;;;;;22.05;13.90;;;;;;;19.92;66.32;102017.75;6065395;23;20085;-79
2023/10/05 06:00:23;;;;;;;21.23;13.40;;;;;;;19.95;66.27;102019.28;6075431;23;20363;-79
2023/10/05 06:02:51;;;;;;;25.35;13.65;;;;;;;19.94;66.59;102020.28;6056262;23;20022;-78
2023/10/05 06:05:22;;;;;;;21.00;13.80;;;;;;;19.79;67.16;102007.44;6050831;23;20393;-77
2023/10/05 06:07:50;;;;;;;24.77;13.18;;;;;;;19.94;67.43;102017.59;6058306;23;20022;-79
2023/10/05 06:10:28;;;;;;;21.50;13.52;;;;;;;20.02;66.94;102028.41;6060166;23;20510;-79
2023/10/05 06:12:57;;;;;;;31.23;14.18;;;;;;;19.80;66.94;101997.50;6066998;23;20211;-80
2023/10/05 06:15:24;;;;;;;23.23;14.07;;;;;;;19.61;67.27;101953.66;6054217;23;20394;-79
2023/10/05 06:17:54;;;;;;;25.80;14.68;;;;;;;19.83;67.69;101987.25;6062917;23;20262;-79
2023/10/05 06:20:22;;;;;;;25.95;14.52;;;;;;;19.93;67.70;102013.19;6072845;23;20270;-78
2023/10/05 06:22:50;;;;;;;21.75;14.25;;;;;;;20.09;67.90;102024.03;6056658;23;20053;-81
2023/10/05 06:25:18;;;;;;;24.75;15.07;;;;;;;20.06;68.07;102014.44;6051454;23;20062;-81
2023/10/05 06:27:47;;;;;;;28.10;15.85;;;;;;;20.19;68.06;102030.13;6049091;23;20055;-81
2023/10/05 06:30:14;;;;;;;23.25;13.93;;;;;;;19.95;68.30;101989.63;6055542;23;20730;-82
2023/10/05 06:32:46;;;;;;;29.27;15.07;;;;;;;20.10;68.08;102009.56;6090458;23;20018;-81
2023/10/05 06:35:17;;;;;;;29.48;15.20;;;;;;;20.24;68.39;102025.09;6063570;23;20066;-81
2023/10/05 06:37:45;;;;;;;26.52;15.30;;;;;;;20.09;68.40;102002.47;6040735;23;20077;-80
2023/10/05 06:40:21;;;;;;;27.15;15.48;;;;;;;20.04;68.26;101991.34;6042395;23;20105;-82
2023/10/05 06:42:51;;;;;;;29.73;16.02;;;;;;;20.27;68.73;102029.31;6044101;23;20089;-80
2023/10/05 06:45:23;;;;;;;28.08;16.27;;;;;;;20.28;68.83;102026.44;6060472;23;20026;-81
2023/10/05 06:47:51;;;;;;;33.47;17.00;;;;;;;20.33;69.13;102039.44;6034101;23;20090;-80
2023/10/05 06:50:24;;;;;;;26.98;15.57;;;;;;;19.68;69.34;101929.59;6045991;23;20381;-79
2023/10/05 06:52:52;;;;;;;25.13;15.00;;;;;;;20.08;68.57;101990.00;6045494;23;20034;-79
2023/10/05 06:55:23;;;;;;;30.45;14.68;;;;;;;20.49;67.89;102039.47;6059731;23;20026;-80
2023/10/05 06:57:59;;;;;;;29.05;14.00;;;;;;;20.27;67.70;102015.84;6047441;23;20647;-80
2023/10/05 07:00:27;;;;;;;25.13;16.23;;;;;;;20.46;67.58;102049.72;6058441;23;20015;-81
2023/10/05 07:02:54;;;;;;;32.55;15.13;;;;;;;20.26;67.44;102014.97;6046692;23;20030;-80
2023/10/05 07:05:21;;;;;;;28.95;16.13;;;;;;;19.88;67.30;101956.25;6050676;23;20304;-80
2023/10/05 07:07:48;;;;;;;31.35;14.35;;;;;;;20.55;66.58;102056.84;6062447;23;20030;-81
2023/10/05 07:10:16;;;;;;;29.27;15.13;;;;;;;20.61;66.53;102058.91;6036503;23;20050;-81
2023/10/05 07:12:47;;;;;;;24.08;14.57;;;;;;;20.65;66.12;102056.69;6050636;23;20307;-81
2023/10/05 07:15:18;;;;;;;26.65;13.82;;;;;;;20.75;65.29;102072.72;6057132;23;20034;-81
2023/10/05 07:17:48;;;;;;;28.60;15.40;;;;;;;20.30;64.90;101987.69;6047215;23;20033;-81
2023/10/05 07:20:17;;;;;;;27.10;15.07;;;;;;;20.38;64.84;101998.47;6059124;23;20354;-81
2023/10/05 07:22:45;;;;;;;23.30;13.85;;;;;;;20.75;65.24;102067.31;6060198;23;20018;-81
2023/10/05 07:25:14;;;;;;;22.75;14.02;;;;;;;20.95;64.39;102076.78;6068983;23;20014;-79
2023/10/05 07:27:43;;;;;;;23.30;14.23;;;;;;;20.59;64.87;102019.59;6050473;23;20022;-80
2023/10/05 07:30:12;;;;;;;18.02;13.63;;;;;;;20.89;64.61;102072.88;6050507;23;20018;-83
2023/10/05 07:32:40;;;;;;;26.50;14.45;;;;;;;20.86;64.20;102075.09;6063367;23;20030;-81
2023/10/05 07:35:12;;;;;;;30.85;15.00;;;;;;;20.89;64.33;102066.66;6059038;23;20018;-81
2023/10/05 07:37:39;;;;;;;29.00;14.75;;;;;;;20.93;64.35;102073.41;6080769;23;20105;-81
2023/10/05 07:40:13;;;;;;;20.98;12.68;;;;;;;20.95;64.58;102084.88;6066955;23;20019;-81
2023/10/05 07:42:43;;;;;;;27.23;13.35;;;;;;;20.95;64.13;102057.91;6070771;23;20050;-78
2023/10/05 07:45:11;;;;;;;24.27;13.13;;;;;;;20.92;64.33;102056.38;6065910;23;20052;-80
2023/10/05 07:47:43;;;;;;;28.00;14.00;;;;;;;20.47;64.18;101974.03;6069449;23;20523;-81
2023/10/05 07:50:11;;;;;;;26.48;14.02;;;;;;;20.51;64.06;101990.75;6042734;23;20215;-78
2023/10/05 07:52:48;;;;;;;23.55;13.85;;;;;;;21.03;63.51;102057.03;6036472;23;20351;-80
2023/10/05 07:55:20;;;;;;;23.67;14.68;;;;;;;21.32;63.53;102094.31;6047343;23;20253;-82
2023/10/05 07:57:51;;;;;;;26.23;14.13;;;;;;;21.15;63.57;102068.34;6068548;23;20419;-82
2023/10/05 08:00:21;;;;;;;23.55;13.95;;;;;;;20.83;64.10;102027.69;6054379;23;20029;-82
2023/10/05 08:02:49;;;;;;;29.45;14.63;;;;;;;20.70;63.39;101990.44;6047573;23;20314;-80
2023/10/05 08:05:21;;;;;;;25.17;15.25;;;;;;;21.31;63.74;102089.91;6065014;23;20358;-81
2023/10/05 08:07:51;;;;;;;25.02;14.32;;;;;;;21.36;63.85;102106.47;6062682;23;20066;-80
2023/10/05 08:10:19;;;;;;;28.83;16.25;;;;;;;21.36;64.14;102103.75;6062167;23;20030;-79
2023/10/05 08:12:53;;;;;;;23.60;15.27;;;;;;;21.41;63.52;102090.63;6000696;23;20022;-80
2023/10/05 08:15:29;;;;;;;31.75;16.77;;;;;;;21.54;63.87;102109.81;6036687;23;20033;-79
2023/10/05 08:17:56;;;;;;;27.42;16.48;;;;;;;21.55;63.98;102098.03;6063734;23;20019;-82
2023/10/05 08:20:26;;;;;;;26.67;15.25;;;;;;;21.58;63.93;102109.47;6069934;23;20215;-79
2023/10/05 08:22:59;;;;;;;25.55;15.32;;;;;;;21.64;63.84;102100.69;6045932;23;20023;-81
2023/10/05 08:25:36;;;;;;;25.08;15.20;;;;;;;21.55;63.50;102078.22;6033107;23;20030;-80
2023/10/05 08:28:04;;;;;;;31.83;16.48;;;;;;;21.53;63.92;102089.25;6064211;23;20110;-78
2023/10/05 08:30:37;;;;;;;24.13;15.40;;;;;;;20.67;63.88;101936.78;6045544;23;20855;-79
2023/10/05 08:33:09;;;;;;;27.42;16.10;;;;;;;21.72;63.89;102106.06;6049361;23;20022;-79
2023/10/05 08:35:40;;;;;;;31.23;15.73;;;;;;;21.71;63.97;102080.06;6042742;23;20355;-80
2023/10/05 08:38:15;;;;;;;30.45;16.20;;;;;;;21.86;63.50;102099.94;6047114;23;20442;-79
2023/10/05 08:40:45;;;;;;;30.23;16.05;;;;;;;21.65;63.07;102064.53;6046696;23;20054;-77
2023/10/05 08:43:16;;;;;;;23.60;15.20;;;;;;;21.80;63.21;102084.44;6055857;23;20292;-80
2023/10/05 08:46:01;;;;;;;30.42;15.25;;;;;;;22.02;63.38;102103.59;6035868;23;20249;-78
2023/10/05 08:48:36;;;;;;;28.40;14.48;;;;;;;22.14;62.92;102096.78;6047714;23;20022;-79
2023/10/05 08:51:14;;;;;;;26.33;15.60;;;;;;;22.05;62.50;102070.81;6080411;23;20019;-79
2023/10/05 08:53:48;;;;;;;22.27;14.43;;;;;;;22.18;62.71;102079.16;6050679;23;20089;-80
2023/10/05 08:56:18;;;;;;;23.75;13.43;;;;;;;22.38;62.32;102104.81;6050682;23;20276;-80
2023/10/05 08:58:46;;;;;;;26.75;14.80;;;;;;;22.25;61.98;102060.41;6060355;23;20496;-80
2023/10/05 09:01:36;;;;;;;25.70;13.60;;;;;;;22.49;61.77;102083.75;6030068;23;20046;-81
2023/10/05 09:07:08;;;;;;;23.55;13.63;;;;;;;22.78;60.90;102048.69;6060613;23;20014;-81
2023/10/05 09:09:37;;;;;;;30.55;13.93;;;;;;;23.09;60.76;102096.53;6053643;23;20021;-81
2023/10/05 09:13:13;;;;;;;28.00;13.48;;;;;;;23.27;60.62;102096.19;6052145;23;20049;-81
2023/10/05 09:20:38;;;;;;;23.55;14.27;;;;;;;23.48;59.62;102057.53;6064609;23;20259;-81
2023/10/05 09:23:09;;;;;;;22.25;13.25;;;;;;;23.60;58.92;102033.50;6052213;23;20715;-82
2023/10/05 09:25:46;;;;;;;25.20;14.65;;;;;;;23.88;59.05;102074.34;6055176;23;20379;-81
2023/10/05 09:28:51;;;;;;;26.75;14.48;;;;;;;23.87;57.85;102064.56;6054555;23;20029;-82
2023/10/05 09:31:19;;;;;;;16.70;11.02;;;;;;;24.00;58.52;102064.69;6050868;23;20022;-81
2023/10/05 09:33:49;;;;;;;16.25;10.30;;;;;;;23.89;58.29;102028.06;6034289;23;20030;-81
2023/10/05 09:36:25;;;;;;;20.33;11.18;;;;;;;24.15;57.38;102053.81;6049115;23;20026;-81
2023/10/05 09:38:57;;;;;;;21.67;10.52;;;;;;;24.29;56.88;102044.78;6041805;23;20022;-81
2023/10/05 09:41:29;;;;;;;20.52;10.55;;;;;;;24.23;56.49;102023.03;6077099;23;20390;-82
2023/10/05 09:44:01;;;;;;;23.35;9.90;;;;;;;24.62;56.49;102078.78;6052454;23;20451;-81
2023/10/05 09:46:35;;;;;;;18.60;9.90;;;;;;;24.52;55.67;102060.94;6057299;23;20022;-81
2023/10/05 09:49:05;;;;;;;19.42;10.18;;;;;;;24.81;55.25;102078.13;6053378;23;20019;-81
2023/10/05 09:51:34;;;;;;;19.30;10.32;;;;;;;24.79;55.65;102080.19;6049260;23;20071;-81
2023/10/05 09:54:08;;;;;;;23.02;11.25;;;;;;;24.65;55.51;102053.97;6071116;23;20030;-80
2023/10/05 09:56:41;;;;;;;19.85;11.18;;;;;;;24.93;55.78;102082.00;6032313;23;20292;-81
2023/10/05 09:59:18;;;;;;;27.77;12.38;;;;;;;25.18;54.12;102083.47;6041114;23;20097;-81
2023/10/05 10:01:50;;;;;;;29.58;12.02;;;;;;;24.79;52.99;102006.03;6043658;23;20057;-80
2023/10/05 10:04:35;;;;;;;18.55;9.10;;;;;;;25.26;52.82;102073.28;6060812;23;20053;-81
2023/10/05 10:07:09;;;;;;;27.00;10.38;;;;;;;25.13;53.64;102040.56;6036135;23;20065;-80
2023/10/05 10:09:42;;;;;;;18.05;8.73;;;;;;;25.36;53.71;102075.66;6075367;23;20425;-79
2023/10/05 10:12:37;;;;;;;18.60;9.63;;;;;;;25.38;53.97;102077.13;6057016;23;20451;-81
2023/10/05 10:15:24;;;;;;;21.45;9.13;;;;;;;25.47;53.71;102080.53;6051526;23;20270;-81
2023/10/05 10:18:06;;;;;;;17.90;8.30;;;;;;;25.03;53.03;101994.72;6044738;23;20027;-81
2023/10/05 10:20:37;;;;;;;18.30;8.95;;;;;;;25.24;52.74;102012.84;6049570;23;20023;-81
2023/10/05 10:23:35;;;;;;;22.60;9.07;;;;;;;25.65;52.31;102051.97;6055757;23;20042;-81
2023/10/05 10:26:06;;;;;;;24.20;9.35;;;;;;;25.70;52.30;102025.84;6078510;23;20410;-81
2023/10/05 10:31:30;;;;;;;24.27;9.63;;;;;;;26.15;50.53;102026.25;6068369;23;20029;-80
2023/10/05 10:34:34;;;;;;;17.85;8.88;;;;;;;26.40;49.46;102042.00;6053344;23;20387;-81
2023/10/05 10:37:03;;;;;;;20.88;8.88;;;;;;;26.39;49.93;102040.34;6062511;23;20018;-82
2023/10/05 10:39:31;;;;;;;23.92;8.43;;;;;;;26.36;50.26;102040.75;6056126;23;20022;-82
2023/10/05 10:42:09;;;;;;;20.13;10.77;;;;;;;26.41;50.41;102038.25;6058875;23;20049;-81
2023/10/05 10:47:19;;;;;;;23.83;10.00;;;;;;;26.51;50.26;102029.69;6052966;23;20208;-81
2023/10/05 10:52:40;;;;;;;19.73;9.38;;;;;;;26.84;49.58;101994.28;6058686;23;20474;-80
2023/10/05 10:55:14;;;;;;;19.27;9.25;;;;;;;27.01;48.98;101981.91;6053263;23;20093;-80
2023/10/05 10:57:47;;;;;;;29.25;10.38;;;;;;;27.17;48.40;101987.97;6044681;23;20091;-80
2023/10/05 11:03:12;;;;;;;23.45;8.82;;;;;;;26.84;48.02;101915.28;6073630;23;20089;-81
2023/10/05 11:05:47;;;;;;;13.77;8.15;;;;;;;27.20;47.42;101965.75;6064269;23;20098;-80
2023/10/05 11:08:20;;;;;;;31.30;10.40;;;;;;;27.37;47.34;101986.03;6058878;23;20458;-82
2023/10/05 11:11:07;;;;;;;21.30;9.85;;;;;;;27.62;46.46;101968.94;6064694;23;20026;-80
2023/10/05 11:13:43;;;;;;;19.85;9.20;;;;;;;27.68;46.35;101976.28;6080045;23;20129;-80
2023/10/05 11:16:11;;;;;;;48.35;11.35;;;;;;;27.58;46.46;101951.38;6068445;23;20470;-80
2023/10/05 11:19:17;;;;;;;23.20;10.30;;;;;;;27.87;45.29;101972.66;6074307;23;20026;-81
2023/10/05 11:22:04;;;;;;;44.95;12.23;;;;;;;27.39;46.55;101904.88;6069208;23;20019;-81
2023/10/05 11:24:39;;;;;;;20.85;9.73;;;;;;;27.59;46.51;101933.94;6051089;23;20684;-81
2023/10/05 11:27:16;;;;;;;18.48;8.73;;;;;;;27.23;45.77;101910.81;6055944;23;20730;-80
2023/10/05 11:29:43;;;;;;;20.50;9.80;;;;;;;27.56;46.56;101978.00;6053824;23;20037;-83
2023/10/05 11:32:25;;;;;;;16.77;9.50;;;;;;;27.52;46.32;101971.31;6069781;23;20170;-83
2023/10/05 11:35:28;;;;;;;23.98;9.82;;;;;;;27.22;47.47;101963.66;6058960;23;20510;-83
2023/10/05 11:38:03;;;;;;;;;;;;;;;27.02;47.85;101959.06;6067246;23;20029;-81
2023/10/05 11:40:47;;;;;;;15.50;9.20;;;;;;;26.94;48.58;101940.19;6066574;23;19964;-81
2023/10/05 11:43:18;;;;;;;18.70;9.25;;;;;;;26.36;48.09;101861.94;6071107;23;20023;-81
2023/10/05 11:45:58;;;;;;;17.83;9.77;;;;;;;26.85;47.71;101942.34;6052416;23;20025;-81
2023/10/05 11:48:41;;;;;;;24.20;10.43;;;;;;;26.94;47.59;101933.91;6085940;23;20210;-80
2023/10/05 11:51:12;;;;;;;16.15;9.63;;;;;;;26.79;46.62;101926.00;6055035;23;20057;-81
2023/10/05 11:53:44;;;;;;;23.63;10.35;;;;;;;26.91;46.40;101927.00;6062280;23;20029;-80
2023/10/05 11:56:17;;;;;;;19.33;10.38;;;;;;;26.68;46.78;101913.88;6060124;23;20382;-81
2023/10/05 11:58:46;;;;;;;23.40;9.65;;;;;;;26.30;46.42;101867.38;6063519;23;20224;-80
2023/10/05 12:01:18;;;;;;;21.90;9.30;;;;;;;26.64;47.15;101908.00;6061937;23;20019;-80
2023/10/05 12:03:50;;;;;;;14.35;8.75;;;;;;;26.81;46.65;101923.91;6058704;23;20023;-81
2023/10/05 12:06:23;;;;;;;27.83;9.68;;;;;;;26.69;46.76;101923.69;6090480;23;20074;-80
2023/10/05 12:09:09;;;;;;;20.60;9.80;;;;;;;26.11;47.05;101858.16;6055013;23;20030;-82